Wetterdaten: Woche 02.05.16 - 08.05.16 (KW18)
Datum Zeit Temp. A. Feuchte A. Luftdruck Regen Wind Richtung Sonnenschein ET UV Solar Taupunkt Windchill Windben Empfang
02.05.2016 00:00 9,3 C 97 % 1017,8 hPa 0,2 l/m 1,1 km/h (1 Bft) W-SW 0,00 h 0,000 mm 0,0 UV-I 0 W/m 8,8 C 9,3 C 2,1 km/h (1 Bft) 99,59 %
02.05.2016 01:00 9,1 C 97 % 1017,7 hPa 0,0 l/m 2,9 km/h (1 Bft) W-SW 0,00 h 0,000 mm 0,0 UV-I 0 W/m 8,7 C 9,1 C 4,0 km/h (1 Bft) 98,29 %
02.05.2016 02:00 8,9 C 97 % 1017,7 hPa 0,0 l/m 3,2 km/h (1 Bft) SW 0,00 h 0,000 mm 0,0 UV-I 0 W/m 8,5 C 8,9 C 4,6 km/h (1 Bft) 99,50 %
02.05.2016 03:00 8,9 C 97 % 1017,8 hPa 0,0 l/m 2,9 km/h (1 Bft) S-SW 0,00 h 0,000 mm 0,0 UV-I 0 W/m 8,4 C 8,9 C 4,1 km/h (1 Bft) 98,29 %
02.05.2016 04:00 8,8 C 97 % 1017,9 hPa 0,0 l/m 1,9 km/h (1 Bft) S-SW 0,00 h 0,000 mm 0,0 UV-I 0 W/m 8,3 C 8,8 C 3,1 km/h (1 Bft) 99,12 %
02.05.2016 05:00 8,7 C 96 % 1018,2 hPa 0,0 l/m 0,3 km/h (0 Bft) S-SW 0,00 h 0,000 mm 0,0 UV-I 0 W/m 8,0 C 8,7 C 0,9 km/h (0 Bft) 97,92 %
02.05.2016 06:00 8,5 C 94 % 1018,5 hPa 0,4 l/m 0,6 km/h (0 Bft) N 0,00 h 0,000 mm 0,0 UV-I 14 W/m 7,7 C 8,5 C 1,8 km/h (1 Bft) 99,35 %
02.05.2016 07:00 8,5 C 93 % 1018,9 hPa 0,2 l/m 0,5 km/h (0 Bft) N-NO 0,00 h 0,000 mm 0,0 UV-I 37 W/m 7,5 C 8,5 C 1,5 km/h (1 Bft) 97,95 %
02.05.2016 08:00 8,9 C 92 % 1019,4 hPa 0,0 l/m 0,6 km/h (0 Bft) W-NW 0,00 h 0,025 mm 0,0 UV-I 85 W/m 7,7 C 8,9 C 1,7 km/h (1 Bft) 99,48 %
02.05.2016 09:00 9,1 C 91 % 1019,5 hPa 0,2 l/m 1,1 km/h (0 Bft) W-NW 0,00 h 0,051 mm 0,5 UV-I 94 W/m 7,8 C 9,1 C 2,1 km/h (1 Bft) 97,74 %
02.05.2016 10:00 9,6 C 89 % 1019,6 hPa 0,0 l/m 3,0 km/h (1 Bft) S-SW 0,00 h 0,051 mm 0,8 UV-I 163 W/m 7,8 C 9,6 C 4,7 km/h (1 Bft) 98,80 %
02.05.2016 11:00 10,6 C 85 % 1019,6 hPa 0,0 l/m 4,5 km/h (1 Bft) SW 0,00 h 0,076 mm 1,4 UV-I 255 W/m 8,2 C 10,5 C 6,6 km/h (2 Bft) 98,12 %
02.05.2016 12:00 11,0 C 84 % 1019,4 hPa 0,0 l/m 7,0 km/h (2 Bft) S-SW 0,00 h 0,127 mm 1,3 UV-I 215 W/m 8,3 C 10,3 C 10,0 km/h (2 Bft) 99,34 %
02.05.2016 13:00 11,8 C 83 % 1019,2 hPa 0,0 l/m 8,9 km/h (2 Bft) SW 0,08 h 0,127 mm 2,1 UV-I 358 W/m 9,0 C 10,2 C 13,1 km/h (3 Bft) 98,21 %
02.05.2016 14:00 13,1 C 79 % 1018,6 hPa 0,0 l/m 12,8 km/h (3 Bft) W-SW 0,90 h 0,178 mm 3,3 UV-I 705 W/m 9,6 C 9,9 C 18,6 km/h (3 Bft) 99,47 %
02.05.2016 15:00 14,4 C 77 % 1017,9 hPa 0,0 l/m 13,3 km/h (3 Bft) S-SW 1,00 h 0,381 mm 2,9 UV-I 748 W/m 10,3 C 11,1 C 19,9 km/h (4 Bft) 98,43 %
02.05.2016 16:00 14,5 C 76 % 1017,3 hPa 0,0 l/m 15,1 km/h (3 Bft) SW 0,80 h 0,406 mm 1,6 UV-I 472 W/m 10,3 C 10,7 C 21,9 km/h (4 Bft) 99,39 %
02.05.2016 17:00 13,7 C 78 % 1017,1 hPa 0,2 l/m 13,6 km/h (3 Bft) S 0,32 h 0,280 mm 0,8 UV-I 181 W/m 10,0 C 10,3 C 19,9 km/h (4 Bft) 98,31 %
02.05.2016 18:00 11,1 C 91 % 1017,2 hPa 3,4 l/m 11,2 km/h (2 Bft) S-SO 0,00 h 0,127 mm 0,0 UV-I 13 W/m 9,7 C 8,4 C 17,1 km/h (3 Bft) 99,61 %
02.05.2016 19:00 10,9 C 92 % 1016,8 hPa 0,2 l/m 9,5 km/h (2 Bft) S-SW 0,00 h 0,025 mm 0,0 UV-I 11 W/m 9,7 C 8,9 C 13,4 km/h (3 Bft) 97,87 %
02.05.2016 20:00 10,7 C 94 % 1017,7 hPa 0,0 l/m 5,1 km/h (1 Bft) S-SO 0,00 h 0,026 mm 0,0 UV-I 5 W/m 9,7 C 10,2 C 8,3 km/h (2 Bft) 98,79 %
02.05.2016 21:00 10,4 C 93 % 1017,9 hPa 0,0 l/m 4,7 km/h (1 Bft) S 0,00 h 0,000 mm 0,0 UV-I 0 W/m 9,3 C 10,2 C 7,4 km/h (2 Bft) 97,45 %
02.05.2016 22:00 10,2 C 94 % 1017,8 hPa 0,4 l/m 4,7 km/h (1 Bft) S 0,00 h 0,000 mm 0,0 UV-I 0 W/m 9,2 C 10,1 C 7,2 km/h (2 Bft) 99,09 %
02.05.2016 23:00 9,9 C 94 % 1017,4 hPa 2,4 l/m 6,7 km/h (2 Bft) SW 0,00 h 0,000 mm 0,0 UV-I 0 W/m 9,0 C 9,0 C 9,8 km/h (2 Bft) 97,57 %
03.05.2016 00:00 9,7 C 95 % 1017,4 hPa 3,8 l/m 5,9 km/h (2 Bft) SW 0,00 h 0,000 mm 0,0 UV-I 0 W/m 9,0 C 9,1 C 9,0 km/h (2 Bft) 99,19 %
03.05.2016 01:00 9,5 C 95 % 1017,1 hPa 0,0 l/m 3,4 km/h (1 Bft) S 0,00 h 0,000 mm 0,0 UV-I 0 W/m 8,9 C 9,4 C 5,5 km/h (1 Bft) 97,31 %
03.05.2016 02:00 9,2 C 96 % 1016,9 hPa 0,0 l/m 2,8 km/h (1 Bft) S-SW 0,00 h 0,000 mm 0,0 UV-I 0 W/m 8,6 C 9,2 C 4,2 km/h (1 Bft) 99,00 %
03.05.2016 03:00 8,7 C 96 % 1016,8 hPa 0,0 l/m 3,0 km/h (1 Bft) W 0,00 h 0,000 mm 0,0 UV-I 0 W/m 8,2 C 8,7 C 4,4 km/h (1 Bft) 98,01 %
03.05.2016 04:00 7,9 C 97 % 1016,6 hPa 0,0 l/m 3,2 km/h (1 Bft) S-SW 0,00 h 0,000 mm 0,0 UV-I 0 W/m 7,5 C 7,9 C 4,6 km/h (1 Bft) 99,01 %
03.05.2016 05:00 7,4 C 97 % 1016,4 hPa 0,0 l/m 3,8 km/h (1 Bft) S-SW 0,00 h 0,000 mm 0,0 UV-I 8 W/m 7,0 C 7,4 C 5,4 km/h (1 Bft) 97,67 %
03.05.2016 06:00 7,4 C 98 % 1016,4 hPa 0,0 l/m 2,5 km/h (1 Bft) S-SW 0,00 h 0,000 mm 0,0 UV-I 50 W/m 7,0 C 7,4 C 4,0 km/h (1 Bft) 99,47 %
03.05.2016 07:00 8,6 C 97 % 1016,6 hPa 0,0 l/m 4,9 km/h (1 Bft) W 0,42 h 0,025 mm 0,0 UV-I 160 W/m 8,2 C 8,4 C 7,2 km/h (2 Bft) 97,57 %
03.05.2016 08:00 10,1 C 92 % 1016,7 hPa 0,0 l/m 5,9 km/h (2 Bft) W-SW 0,57 h 0,077 mm 0,8 UV-I 242 W/m 8,9 C 9,6 C 8,6 km/h (2 Bft) 99,43 %
03.05.2016 09:00 11,8 C 86 % 1016,6 hPa 0,0 l/m 6,6 km/h (2 Bft) W-SW 0,78 h 0,127 mm 1,3 UV-I 416 W/m 9,5 C 11,2 C 10,5 km/h (2 Bft) 98,04 %
03.05.2016 10:00 13,2 C 81 % 1016,3 hPa 0,0 l/m 7,8 km/h (2 Bft) W-SW 0,72 h 0,229 mm 2,3 UV-I 566 W/m 10,0 C 12,1 C 12,8 km/h (3 Bft) 98,91 %
03.05.2016 11:00 14,8 C 73 % 1015,8 hPa 0,0 l/m 10,8 km/h (2 Bft) W-SW 1,05 h 0,304 mm 3,6 UV-I 763 W/m 9,9 C 12,6 C 16,0 km/h (3 Bft) 97,67 %
03.05.2016 12:00 16,2 C 64 % 1015,1 hPa 0,0 l/m 10,1 km/h (2 Bft) W-SW 0,73 h 0,432 mm 3,9 UV-I 695 W/m 9,3 C 14,4 C 15,3 km/h (3 Bft) 98,87 %
03.05.2016 13:00 17,2 C 55 % 1014,2 hPa 0,2 l/m 13,7 km/h (3 Bft) W-SW 1,00 h 0,432 mm 4,5 UV-I 850 W/m 8,0 C 14,5 C 21,4 km/h (4 Bft) 97,68 %
03.05.2016 14:00 17,4 C 55 % 1013,7 hPa 0,0 l/m 17,4 km/h (3 Bft) SW 1,00 h 0,533 mm 3,8 UV-I 813 W/m 8,3 C 13,6 C 25,0 km/h (4 Bft) 98,80 %
03.05.2016 15:00 17,2 C 55 % 1013,4 hPa 0,0 l/m 17,6 km/h (3 Bft) SW 0,75 h 0,533 mm 2,4 UV-I 578 W/m 8,0 C 13,3 C 25,2 km/h (4 Bft) 98,16 %
03.05.2016 16:00 16,3 C 58 % 1013,1 hPa 0,0 l/m 22,7 km/h (4 Bft) W-SW 1,00 h 0,407 mm 1,8 UV-I 568 W/m 7,9 C 10,8 C 32,8 km/h (5 Bft) 98,86 %
03.05.2016 17:00 15,2 C 61 % 1012,9 hPa 0,0 l/m 18,2 km/h (3 Bft) SW 0,30 h 0,406 mm 0,7 UV-I 225 W/m 7,8 C 10,6 C 26,8 km/h (4 Bft) 97,91 %
03.05.2016 18:00 14,6 C 64 % 1013,1 hPa 0,0 l/m 16,2 km/h (3 Bft) W-SW 0,17 h 0,203 mm 0,0 UV-I 95 W/m 7,8 C 10,4 C 23,3 km/h (4 Bft) 97,93 %
03.05.2016 19:00 13,3 C 65 % 1013,8 hPa 0,0 l/m 19,1 km/h (3 Bft) SW 0,00 h 0,127 mm 0,0 UV-I 28 W/m 6,7 C 7,9 C 26,8 km/h (4 Bft) 98,38 %
03.05.2016 20:00 11,7 C 76 % 1015,0 hPa 0,0 l/m 20,9 km/h (4 Bft) SW 0,00 h 0,102 mm 0,0 UV-I 8 W/m 7,7 C 5,4 C 29,5 km/h (5 Bft) 97,60 %
03.05.2016 21:00 11,2 C 82 % 1016,6 hPa 1,0 l/m 17,5 km/h (3 Bft) W-SW 0,00 h 0,051 mm 0,0 UV-I 0 W/m 8,2 C 5,8 C 24,7 km/h (4 Bft) 98,40 %
03.05.2016 22:00 10,4 C 85 % 1016,9 hPa 0,0 l/m 19,8 km/h (4 Bft) W-SW 0,00 h 0,025 mm 0,0 UV-I 0 W/m 8,0 C 3,9 C 27,9 km/h (4 Bft) 98,33 %
03.05.2016 23:00 10,2 C 85 % 1017,5 hPa 0,0 l/m 18,6 km/h (3 Bft) W-SW 0,00 h 0,026 mm 0,0 UV-I 0 W/m 7,8 C 4,0 C 26,3 km/h (4 Bft) 97,58 %
04.05.2016 00:00 9,9 C 86 % 1018,3 hPa 0,0 l/m 16,0 km/h (3 Bft) W-SW 0,00 h 0,000 mm 0,0 UV-I 0 W/m 7,6 C 4,7 C 22,3 km/h (4 Bft) 98,63 %
04.05.2016 01:00 9,9 C 84 % 1018,6 hPa 0,0 l/m 14,6 km/h (3 Bft) W-SW 0,00 h 0,025 mm 0,0 UV-I 0 W/m 7,3 C 5,2 C 21,4 km/h (4 Bft) 98,44 %
04.05.2016 02:00 9,5 C 87 % 1019,0 hPa 0,2 l/m 15,3 km/h (3 Bft) W-SW 0,00 h 0,026 mm 0,0 UV-I 0 W/m 7,4 C 4,6 C 22,2 km/h (4 Bft) 99,11 %
04.05.2016 03:00 9,1 C 88 % 1019,6 hPa 0,0 l/m 15,6 km/h (3 Bft) W 0,00 h 0,025 mm 0,0 UV-I 0 W/m 7,2 C 3,9 C 22,4 km/h (4 Bft) 98,60 %
04.05.2016 04:00 8,8 C 87 % 1020,2 hPa 0,0 l/m 15,5 km/h (3 Bft) W-SW 0,00 h 0,026 mm 0,0 UV-I 0 W/m 6,7 C 3,5 C 22,2 km/h (4 Bft) 98,78 %
04.05.2016 05:00 8,3 C 87 % 1020,8 hPa 0,0 l/m 15,6 km/h (3 Bft) W 0,00 h 0,025 mm 0,0 UV-I 0 W/m 6,3 C 2,9 C 22,9 km/h (4 Bft) 98,35 %
04.05.2016 06:00 7,6 C 90 % 1021,6 hPa 0,2 l/m 16,9 km/h (3 Bft) W-SW 0,00 h 0,025 mm 0,0 UV-I 7 W/m 6,0 C 1,5 C 23,9 km/h (4 Bft) 98,99 %
04.05.2016 07:00 7,0 C 93 % 1022,3 hPa 2,2 l/m 17,1 km/h (3 Bft) W-SW 0,00 h 0,026 mm 0,0 UV-I 18 W/m 6,0 C 0,6 C 23,3 km/h (4 Bft) 98,31 %
04.05.2016 08:00 6,8 C 94 % 1023,1 hPa 1,2 l/m 13,9 km/h (3 Bft) W-SW 0,00 h 0,025 mm 0,0 UV-I 35 W/m 5,9 C 1,9 C 19,1 km/h (3 Bft) 98,76 %
04.05.2016 09:00 6,9 C 94 % 1023,7 hPa 1,8 l/m 12,1 km/h (2 Bft) W-SW 0,00 h 0,026 mm 0,0 UV-I 59 W/m 6,0 C 2,9 C 16,9 km/h (3 Bft) 98,33 %
04.05.2016 10:00 7,1 C 94 % 1024,0 hPa 1,2 l/m 12,8 km/h (3 Bft) W-SW 0,00 h 0,025 mm 0,0 UV-I 71 W/m 6,3 C 2,8 C 17,6 km/h (3 Bft) 99,60 %
04.05.2016 11:00 7,2 C 94 % 1024,4 hPa 1,2 l/m 11,9 km/h (2 Bft) W-SW 0,00 h 0,025 mm 0,6 UV-I 91 W/m 6,4 C 3,5 C 16,6 km/h (3 Bft) 98,46 %
04.05.2016 12:00 7,6 C 94 % 1024,6 hPa 0,8 l/m 10,4 km/h (2 Bft) W-SW 0,00 h 0,051 mm 0,6 UV-I 102 W/m 6,7 C 4,9 C 14,8 km/h (3 Bft) 98,82 %
04.05.2016 13:00 8,0 C 94 % 1024,8 hPa 1,2 l/m 7,7 km/h (2 Bft) W-SW 0,00 h 0,051 mm 0,7 UV-I 112 W/m 7,1 C 6,9 C 11,5 km/h (2 Bft) 98,30 %
04.05.2016 14:00 8,5 C 93 % 1024,8 hPa 0,8 l/m 5,8 km/h (2 Bft) W 0,00 h 0,051 mm 1,4 UV-I 242 W/m 7,4 C 8,0 C 9,8 km/h (2 Bft) 99,12 %
04.05.2016 15:00 8,7 C 90 % 1024,8 hPa 0,0 l/m 4,4 km/h (1 Bft) W-NW 0,00 h 0,101 mm 0,9 UV-I 168 W/m 7,2 C 8,5 C 8,0 km/h (2 Bft) 98,03 %
04.05.2016 16:00 8,5 C 89 % 1024,8 hPa 0,0 l/m 4,1 km/h (1 Bft) W 0,00 h 0,077 mm 0,4 UV-I 79 W/m 6,8 C 8,5 C 6,3 km/h (2 Bft) 99,33 %
04.05.2016 17:00 8,8 C 88 % 1024,9 hPa 0,0 l/m 7,8 km/h (2 Bft) SW 0,00 h 0,050 mm 0,5 UV-I 157 W/m 7,0 C 7,5 C 11,4 km/h (2 Bft) 97,94 %
04.05.2016 18:00 8,6 C 89 % 1025,1 hPa 0,2 l/m 7,2 km/h (2 Bft) SW 0,00 h 0,077 mm 0,0 UV-I 65 W/m 7,0 C 7,8 C 10,6 km/h (2 Bft) 99,35 %
04.05.2016 19:00 8,2 C 92 % 1025,6 hPa 0,2 l/m 5,1 km/h (1 Bft) W-SW 0,00 h 0,025 mm 0,0 UV-I 30 W/m 7,1 C 8,2 C 7,1 km/h (2 Bft) 97,68 %
04.05.2016 20:00 7,9 C 93 % 1025,9 hPa 0,2 l/m 3,0 km/h (1 Bft) W-NW 0,00 h 0,025 mm 0,0 UV-I 6 W/m 6,9 C 7,8 C 4,9 km/h (1 Bft) 98,85 %
04.05.2016 21:00 7,4 C 95 % 1026,5 hPa 0,8 l/m 2,6 km/h (1 Bft) W 0,00 h 0,000 mm 0,0 UV-I 0 W/m 6,6 C 7,4 C 4,0 km/h (1 Bft) 98,09 %
04.05.2016 22:00 6,9 C 95 % 1026,8 hPa 0,4 l/m 1,4 km/h (1 Bft) W 0,00 h 0,000 mm 0,0 UV-I 0 W/m 6,2 C 6,9 C 2,7 km/h (1 Bft) 99,11 %
04.05.2016 23:00 6,8 C 96 % 1027,0 hPa 0,0 l/m 0,3 km/h (0 Bft) W 0,00 h 0,000 mm 0,0 UV-I 0 W/m 6,1 C 6,8 C 0,9 km/h (0 Bft) 97,78 %
05.05.2016 00:00 6,8 C 96 % 1027,0 hPa 0,2 l/m 0,5 km/h (0 Bft) W 0,00 h 0,000 mm 0,0 UV-I 0 W/m 6,2 C 6,8 C 0,9 km/h (0 Bft) 99,49 %
05.05.2016 01:00 6,4 C 97 % 1026,5 hPa 0,0 l/m 0,2 km/h (0 Bft) W 0,00 h 0,000 mm 0,0 UV-I 0 W/m 6,0 C 6,4 C 0,7 km/h (0 Bft) 97,96 %
05.05.2016 02:00 6,1 C 97 % 1026,2 hPa 0,0 l/m 0,5 km/h (0 Bft) W 0,00 h 0,000 mm 0,0 UV-I 0 W/m 5,7 C 6,1 C 0,9 km/h (0 Bft) 99,52 %
05.05.2016 03:00 6,1 C 97 % 1026,0 hPa 0,0 l/m 0,1 km/h (0 Bft) W 0,00 h 0,000 mm 0,0 UV-I 0 W/m 5,7 C 6,1 C 0,3 km/h (0 Bft) 97,83 %
05.05.2016 04:00 6,3 C 97 % 1026,0 hPa 0,0 l/m 0,6 km/h (0 Bft) W 0,00 h 0,000 mm 0,0 UV-I 0 W/m 5,9 C 6,3 C 1,2 km/h (1 Bft) 99,14 %
05.05.2016 05:00 6,4 C 97 % 1026,0 hPa 0,0 l/m 0,2 km/h (0 Bft) W 0,00 h 0,000 mm 0,0 UV-I 6 W/m 6,0 C 6,4 C 0,6 km/h (0 Bft) 98,09 %
05.05.2016 06:00 6,5 C 97 % 1025,9 hPa 0,0 l/m 0,6 km/h (0 Bft) W 0,00 h 0,000 mm 0,0 UV-I 19 W/m 6,1 C 6,5 C 1,4 km/h (1 Bft) 99,62 %
05.05.2016 07:00 6,8 C 95 % 1025,9 hPa 0,0 l/m 0,8 km/h (0 Bft) W 0,00 h 0,000 mm 0,0 UV-I 72 W/m 6,1 C 6,8 C 1,8 km/h (1 Bft) 98,42 %
05.05.2016 08:00 7,5 C 92 % 1026,1 hPa 0,0 l/m 2,8 km/h (1 Bft) NO 0,00 h 0,025 mm 0,4 UV-I 129 W/m 6,3 C 7,5 C 4,2 km/h (1 Bft) 99,44 %
05.05.2016 09:00 8,1 C 91 % 1026,2 hPa 0,0 l/m 3,5 km/h (1 Bft) N-NO 0,00 h 0,051 mm 0,8 UV-I 185 W/m 6,7 C 8,0 C 5,5 km/h (1 Bft) 97,04 %
05.05.2016 10:00 8,7 C 90 % 1026,2 hPa 0,0 l/m 5,9 km/h (2 Bft) N-NO 0,00 h 0,076 mm 1,0 UV-I 200 W/m 7,1 C 8,3 C 9,0 km/h (2 Bft) 99,45 %
05.05.2016 11:00 9,2 C 87 % 1026,2 hPa 0,0 l/m 7,3 km/h (2 Bft) O-NO 0,00 h 0,102 mm 1,7 UV-I 299 W/m 7,2 C 8,2 C 10,3 km/h (2 Bft) 97,96 %
05.05.2016 12:00 10,4 C 84 % 1025,7 hPa 0,0 l/m 9,9 km/h (2 Bft) NO 0,35 h 0,152 mm 2,6 UV-I 445 W/m 7,7 C 8,1 C 14,3 km/h (3 Bft) 99,86 %
05.05.2016 13:00 12,1 C 80 % 1025,2 hPa 0,0 l/m 11,9 km/h (2 Bft) NO 1,00 h 0,229 mm 3,9 UV-I 731 W/m 8,8 C 9,1 C 16,8 km/h (3 Bft) 98,10 %
05.05.2016 14:00 13,0 C 75 % 1024,7 hPa 0,0 l/m 15,1 km/h (3 Bft) O-NO 0,97 h 0,381 mm 3,7 UV-I 775 W/m 8,7 C 8,8 C 20,4 km/h (4 Bft) 98,21 %
05.05.2016 15:00 13,4 C 72 % 1024,1 hPa 0,0 l/m 15,8 km/h (3 Bft) O-NO 0,43 h 0,406 mm 2,3 UV-I 492 W/m 8,6 C 9,1 C 21,2 km/h (4 Bft) 98,32 %
05.05.2016 16:00 13,6 C 72 % 1023,6 hPa 0,0 l/m 18,3 km/h (3 Bft) O-NO 0,68 h 0,305 mm 1,6 UV-I 469 W/m 8,6 C 8,4 C 23,8 km/h (4 Bft) 98,24 %
05.05.2016 17:00 13,5 C 73 % 1023,1 hPa 0,0 l/m 18,1 km/h (3 Bft) O-NO 0,78 h 0,280 mm 0,9 UV-I 333 W/m 8,8 C 8,5 C 24,1 km/h (4 Bft) 98,31 %
05.05.2016 18:00 13,4 C 73 % 1022,6 hPa 0,0 l/m 15,0 km/h (3 Bft) O-NO 1,00 h 0,228 mm 0,5 UV-I 248 W/m 8,7 C 9,3 C 20,2 km/h (4 Bft) 99,41 %
05.05.2016 19:00 12,6 C 76 % 1022,1 hPa 0,0 l/m 11,3 km/h (2 Bft) O-NO 0,25 h 0,153 mm 0,0 UV-I 65 W/m 8,6 C 10,0 C 15,7 km/h (3 Bft) 99,09 %
05.05.2016 20:00 11,1 C 83 % 1021,9 hPa 0,0 l/m 6,2 km/h (2 Bft) O-NO 0,07 h 0,050 mm 0,0 UV-I 10 W/m 8,2 C 10,8 C 8,4 km/h (2 Bft) 98,66 %
05.05.2016 21:00 10,1 C 85 % 1021,7 hPa 0,0 l/m 3,7 km/h (1 Bft) NO 0,00 h 0,026 mm 0,0 UV-I 0 W/m 7,8 C 10,1 C 4,9 km/h (1 Bft) 98,06 %
05.05.2016 22:00 9,1 C 89 % 1021,5 hPa 0,2 l/m 6,1 km/h (2 Bft) O-NO 0,00 h 0,000 mm 0,0 UV-I 0 W/m 7,5 C 8,8 C 8,3 km/h (2 Bft) 98,70 %
05.05.2016 23:00 8,8 C 91 % 1021,3 hPa 0,0 l/m 6,8 km/h (2 Bft) O-NO 0,00 h 0,000 mm 0,0 UV-I 0 W/m 7,4 C 8,4 C 9,5 km/h (2 Bft) 98,01 %
06.05.2016 00:00 8,3 C 92 % 1021,0 hPa 0,0 l/m 9,2 km/h (2 Bft) O-NO 0,00 h 0,000 mm 0,0 UV-I 0 W/m 7,1 C 6,2 C 13,2 km/h (3 Bft) 96,44 %
06.05.2016 01:00 8,2 C 93 % 1020,7 hPa 0,0 l/m 10,2 km/h (2 Bft) O-NO 0,00 h 0,000 mm 0,0 UV-I 0 W/m 7,2 C 5,5 C 14,4 km/h (3 Bft) 97,82 %
06.05.2016 02:00 7,9 C 93 % 1020,2 hPa 0,0 l/m 7,0 km/h (2 Bft) NO 0,00 h 0,000 mm 0,0 UV-I 0 W/m 6,9 C 7,0 C 10,2 km/h (2 Bft) 98,94 %
06.05.2016 03:00 6,9 C 95 % 1019,8 hPa 0,0 l/m 5,4 km/h (1 Bft) O-NO 0,00 h 0,000 mm 0,0 UV-I 0 W/m 6,2 C 6,6 C 7,4 km/h (2 Bft) 98,01 %
06.05.2016 04:00 6,5 C 96 % 1019,2 hPa 0,0 l/m 5,0 km/h (1 Bft) O-NO 0,00 h 0,000 mm 0,0 UV-I 0 W/m 5,9 C 6,4 C 7,1 km/h (2 Bft) 98,89 %
06.05.2016 05:00 6,4 C 96 % 1018,8 hPa 0,0 l/m 5,7 km/h (1 Bft) O-NO 0,03 h 0,000 mm 0,0 UV-I 9 W/m 5,8 C 6,1 C 8,4 km/h (2 Bft) 97,68 %
06.05.2016 06:00 6,4 C 96 % 1018,8 hPa 0,0 l/m 2,7 km/h (1 Bft) O-SO 0,10 h 0,000 mm 0,0 UV-I 41 W/m 5,9 C 6,4 C 4,3 km/h (1 Bft) 99,02 %
06.05.2016 07:00 8,4 C 93 % 1018,8 hPa 0,0 l/m 2,0 km/h (1 Bft) O-NO 0,90 h 0,025 mm 0,5 UV-I 200 W/m 7,3 C 8,4 C 3,4 km/h (1 Bft) 97,85 %
06.05.2016 08:00 11,8 C 84 % 1018,6 hPa 0,0 l/m 16,8 km/h (3 Bft) O-NO 0,90 h 0,102 mm 1,0 UV-I 309 W/m 9,2 C 7,0 C 22,5 km/h (4 Bft) 99,32 %
06.05.2016 09:00 13,6 C 77 % 1018,3 hPa 0,0 l/m 18,1 km/h (3 Bft) O-NO 1,00 h 0,178 mm 1,9 UV-I 535 W/m 9,7 C 8,6 C 24,5 km/h (4 Bft) 97,59 %
06.05.2016 10:00 15,3 C 73 % 1018,0 hPa 0,0 l/m 16,5 km/h (3 Bft) O-NO 1,00 h 0,330 mm 3,0 UV-I 685 W/m 10,4 C 11,1 C 21,9 km/h (4 Bft) 95,85 %
06.05.2016 11:00 17,0 C 67 % 1017,7 hPa 0,0 l/m 16,5 km/h (3 Bft) NO 1,00 h 0,406 mm 4,0 UV-I 775 W/m 10,8 C 13,2 C 22,3 km/h (4 Bft) 88,64 %
06.05.2016 12:00 18,5 C 61 % 1017,2 hPa 0,0 l/m 16,6 km/h (3 Bft) NO 1,00 h 0,483 mm 4,7 UV-I 840 W/m 10,7 C 15,0 C 22,5 km/h (4 Bft) 98,57 %
06.05.2016 13:00 19,7 C 57 % 1016,6 hPa 0,0 l/m 17,0 km/h (3 Bft) NO 1,00 h 0,559 mm 4,8 UV-I 837 W/m 10,9 C 16,5 C 23,1 km/h (4 Bft) 98,51 %
06.05.2016 14:00 20,6 C 52 % 1015,8 hPa 0,0 l/m 19,2 km/h (3 Bft) O-NO 1,00 h 0,584 mm 4,3 UV-I 804 W/m 10,2 C 17,1 C 25,8 km/h (4 Bft) 98,54 %
06.05.2016 15:00 21,0 C 50 % 1015,2 hPa 0,0 l/m 19,5 km/h (3 Bft) O-NO 1,00 h 0,584 mm 3,2 UV-I 705 W/m 10,1 C 17,6 C 26,1 km/h (4 Bft) 98,75 %
06.05.2016 16:00 21,1 C 50 % 1014,6 hPa 0,0 l/m 20,5 km/h (4 Bft) O-NO 1,00 h 0,559 mm 2,0 UV-I 568 W/m 10,1 C 17,6 C 27,2 km/h (4 Bft) 98,11 %
06.05.2016 17:00 20,7 C 48 % 1014,1 hPa 0,0 l/m 21,2 km/h (4 Bft) O-NO 1,00 h 0,483 mm 1,1 UV-I 408 W/m 9,4 C 17,0 C 28,7 km/h (4 Bft) 98,57 %
06.05.2016 18:00 20,0 C 47 % 1013,7 hPa 0,0 l/m 20,0 km/h (4 Bft) O-NO 1,00 h 0,381 mm 0,6 UV-I 234 W/m 8,4 C 16,2 C 26,8 km/h (4 Bft) 97,47 %
06.05.2016 19:00 18,7 C 50 % 1013,6 hPa 0,0 l/m 16,5 km/h (3 Bft) O-NO 0,33 h 0,279 mm 0,0 UV-I 69 W/m 8,1 C 15,4 C 21,9 km/h (4 Bft) 99,43 %
06.05.2016 20:00 16,9 C 54 % 1013,7 hPa 0,0 l/m 12,4 km/h (3 Bft) O-NO 0,05 h 0,152 mm 0,0 UV-I 10 W/m 7,5 C 14,4 C 17,4 km/h (3 Bft) 97,77 %
06.05.2016 21:00 14,8 C 61 % 1014,0 hPa 0,0 l/m 8,2 km/h (2 Bft) NO 0,00 h 0,077 mm 0,0 UV-I 0 W/m 7,3 C 13,8 C 11,9 km/h (2 Bft) 98,58 %
06.05.2016 22:00 13,9 C 62 % 1014,0 hPa 0,0 l/m 9,4 km/h (2 Bft) NO 0,00 h 0,050 mm 0,0 UV-I 0 W/m 6,7 C 12,3 C 13,5 km/h (3 Bft) 97,18 %
06.05.2016 23:00 12,7 C 67 % 1013,8 hPa 0,0 l/m 7,9 km/h (2 Bft) O-NO 0,00 h 0,051 mm 0,0 UV-I 0 W/m 6,7 C 11,7 C 11,2 km/h (2 Bft) 97,81 %
07.05.2016 00:00 12,0 C 71 % 1013,7 hPa 0,0 l/m 9,1 km/h (2 Bft) O-NO 0,00 h 0,000 mm 0,0 UV-I 0 W/m 6,9 C 10,4 C 12,9 km/h (3 Bft) 97,88 %
07.05.2016 01:00 11,5 C 73 % 1013,5 hPa 0,0 l/m 8,4 km/h (2 Bft) O-NO 0,00 h 0,025 mm 0,0 UV-I 0 W/m 6,8 C 10,2 C 12,1 km/h (2 Bft) 99,23 %
07.05.2016 02:00 11,2 C 74 % 1013,1 hPa 0,0 l/m 8,6 km/h (2 Bft) O-NO 0,00 h 0,026 mm 0,0 UV-I 0 W/m 6,7 C 9,7 C 12,2 km/h (2 Bft) 97,56 %
07.05.2016 03:00 10,3 C 77 % 1012,7 hPa 0,0 l/m 4,7 km/h (1 Bft) O-NO 0,00 h 0,025 mm 0,0 UV-I 0 W/m 6,5 C 10,2 C 6,5 km/h (2 Bft) 99,08 %
07.05.2016 04:00 9,3 C 81 % 1012,7 hPa 0,0 l/m 4,0 km/h (1 Bft) O-NO 0,00 h 0,026 mm 0,0 UV-I 0 W/m 6,3 C 9,2 C 5,8 km/h (2 Bft) 98,10 %
07.05.2016 05:00 8,4 C 84 % 1012,6 hPa 0,0 l/m 2,4 km/h (1 Bft) O-NO 0,03 h 0,000 mm 0,0 UV-I 9 W/m 5,9 C 8,4 C 3,7 km/h (1 Bft) 98,17 %
07.05.2016 06:00 8,7 C 85 % 1012,8 hPa 0,0 l/m 5,6 km/h (1 Bft) O-NO 0,08 h 0,000 mm 0,0 UV-I 41 W/m 6,4 C 8,3 C 7,9 km/h (2 Bft) 98,58 %
07.05.2016 07:00 11,2 C 78 % 1012,9 hPa 0,0 l/m 10,6 km/h (2 Bft) NO 1,00 h 0,025 mm 0,5 UV-I 212 W/m 7,5 C 8,7 C 15,2 km/h (3 Bft) 97,67 %
07.05.2016 08:00 13,4 C 71 % 1012,8 hPa 0,0 l/m 13,8 km/h (3 Bft) O-NO 0,93 h 0,127 mm 1,0 UV-I 324 W/m 8,1 C 9,7 C 18,8 km/h (3 Bft) 98,55 %
07.05.2016 09:00 15,4 C 64 % 1012,8 hPa 0,0 l/m 17,6 km/h (3 Bft) NO 1,00 h 0,203 mm 2,0 UV-I 540 W/m 8,5 C 10,9 C 23,3 km/h (4 Bft) 98,26 %
07.05.2016 10:00 17,3 C 59 % 1012,7 hPa 0,0 l/m 18,5 km/h (3 Bft) O-NO 1,00 h 0,356 mm 3,2 UV-I 694 W/m 9,2 C 13,1 C 24,8 km/h (4 Bft) 98,08 %
07.05.2016 11:00 19,0 C 55 % 1012,5 hPa 0,0 l/m 20,1 km/h (4 Bft) O-NO 1,00 h 0,482 mm 4,3 UV-I 794 W/m 9,6 C 14,9 C 26,7 km/h (4 Bft) 98,77 %
07.05.2016 12:00 20,0 C 51 % 1012,1 hPa 0,0 l/m 21,7 km/h (4 Bft) NO 1,00 h 0,559 mm 4,9 UV-I 850 W/m 9,5 C 16,0 C 29,5 km/h (5 Bft) 98,28 %
07.05.2016 13:00 21,0 C 47 % 1011,7 hPa 0,0 l/m 20,9 km/h (4 Bft) O-NO 1,00 h 0,635 mm 4,9 UV-I 856 W/m 9,4 C 17,4 C 28,4 km/h (4 Bft) 98,91 %
07.05.2016 14:00 21,5 C 42 % 1011,4 hPa 0,0 l/m 22,4 km/h (4 Bft) O-NO 1,00 h 0,661 mm 4,3 UV-I 807 W/m 8,2 C 17,8 C 29,7 km/h (5 Bft) 97,95 %
07.05.2016 15:00 21,5 C 40 % 1011,1 hPa 0,0 l/m 23,5 km/h (4 Bft) O-NO 1,00 h 0,660 mm 3,2 UV-I 707 W/m 7,5 C 17,7 C 30,9 km/h (5 Bft) 99,06 %
07.05.2016 16:00 21,4 C 41 % 1010,7 hPa 0,0 l/m 23,6 km/h (4 Bft) O-NO 1,00 h 0,610 mm 2,1 UV-I 581 W/m 7,5 C 17,5 C 31,8 km/h (5 Bft) 97,43 %
07.05.2016 17:00 21,0 C 41 % 1010,5 hPa 0,0 l/m 24,9 km/h (4 Bft) O-NO 1,00 h 0,533 mm 1,1 UV-I 416 W/m 7,4 C 16,8 C 33,6 km/h (5 Bft) 99,05 %
07.05.2016 18:00 20,4 C 42 % 1010,3 hPa 0,0 l/m 24,4 km/h (4 Bft) O-NO 1,00 h 0,457 mm 0,6 UV-I 240 W/m 7,1 C 16,1 C 31,4 km/h (5 Bft) 98,18 %
07.05.2016 19:00 19,4 C 43 % 1010,6 hPa 0,0 l/m 18,4 km/h (3 Bft) O-NO 0,35 h 0,330 mm 0,0 UV-I 71 W/m 6,5 C 15,8 C 24,5 km/h (4 Bft) 98,98 %
07.05.2016 20:00 17,7 C 46 % 1010,9 hPa 0,0 l/m 16,9 km/h (3 Bft) O-NO 0,05 h 0,178 mm 0,0 UV-I 11 W/m 5,9 C 14,0 C 22,5 km/h (4 Bft) 97,67 %
07.05.2016 21:00 15,7 C 55 % 1011,3 hPa 0,0 l/m 8,5 km/h (2 Bft) O-NO 0,00 h 0,127 mm 0,0 UV-I 0 W/m 6,6 C 14,7 C 12,4 km/h (3 Bft) 98,30 %
07.05.2016 22:00 13,8 C 63 % 1011,6 hPa 0,0 l/m 7,6 km/h (2 Bft) NO 0,00 h 0,051 mm 0,0 UV-I 0 W/m 6,9 C 13,0 C 10,9 km/h (2 Bft) 97,30 %
07.05.2016 23:00 14,3 C 59 % 1011,9 hPa 0,0 l/m 18,4 km/h (3 Bft) O-NO 0,00 h 0,051 mm 0,0 UV-I 0 W/m 6,3 C 9,3 C 25,3 km/h (4 Bft) 99,02 %
08.05.2016 00:00 13,9 C 56 % 1012,1 hPa 0,0 l/m 18,7 km/h (3 Bft) NO 0,00 h 0,000 mm 0,0 UV-I 0 W/m 5,3 C 8,7 C 24,7 km/h (4 Bft) 97,91 %
08.05.2016 01:00 12,7 C 60 % 1012,1 hPa 0,0 l/m 17,2 km/h (3 Bft) O-NO 0,00 h 0,102 mm 0,0 UV-I 0 W/m 5,2 C 7,6 C 22,2 km/h (4 Bft) 99,36 %
08.05.2016 02:00 12,1 C 63 % 1011,8 hPa 0,0 l/m 19,3 km/h (3 Bft) O-NO 0,00 h 0,076 mm 0,0 UV-I 0 W/m 5,1 C 6,2 C 25,5 km/h (4 Bft) 98,01 %
08.05.2016 03:00 11,0 C 68 % 1011,5 hPa 0,0 l/m 13,5 km/h (3 Bft) NO 0,00 h 0,076 mm 0,0 UV-I 0 W/m 5,3 C 7,1 C 18,8 km/h (3 Bft) 98,63 %
08.05.2016 04:00 10,2 C 72 % 1011,4 hPa 0,0 l/m 13,7 km/h (3 Bft) NO 0,00 h 0,051 mm 0,0 UV-I 0 W/m 5,4 C 6,2 C 19,1 km/h (3 Bft) 98,07 %
08.05.2016 05:00 9,7 C 75 % 1011,5 hPa 0,0 l/m 12,4 km/h (3 Bft) O-NO 0,02 h 0,051 mm 0,0 UV-I 9 W/m 5,6 C 6,1 C 17,5 km/h (3 Bft) 99,42 %
08.05.2016 06:00 10,0 C 76 % 1012,0 hPa 0,0 l/m 14,4 km/h (3 Bft) O-NO 0,10 h 0,025 mm 0,0 UV-I 42 W/m 5,9 C 5,5 C 20,2 km/h (4 Bft) 97,63 %
08.05.2016 07:00 11,1 C 75 % 1012,5 hPa 0,0 l/m 17,3 km/h (3 Bft) NO 1,00 h 0,051 mm 0,5 UV-I 214 W/m 6,8 C 5,6 C 23,5 km/h (4 Bft) 99,73 %
08.05.2016 08:00 12,6 C 71 % 1012,7 hPa 0,0 l/m 18,0 km/h (3 Bft) NO 0,93 h 0,152 mm 1,0 UV-I 328 W/m 7,5 C 7,4 C 24,2 km/h (4 Bft) 97,49 %
08.05.2016 09:00 14,1 C 68 % 1012,8 hPa 0,0 l/m 22,3 km/h (4 Bft) O-NO 1,00 h 0,229 mm 1,9 UV-I 536 W/m 8,3 C 8,1 C 29,5 km/h (5 Bft) 99,00 %
08.05.2016 10:00 15,7 C 66 % 1012,8 hPa 0,0 l/m 19,5 km/h (3 Bft) O-NO 1,00 h 0,355 mm 3,0 UV-I 689 W/m 9,3 C 10,9 C 26,4 km/h (4 Bft) 97,49 %
08.05.2016 11:00 17,4 C 64 % 1012,5 hPa 0,0 l/m 22,0 km/h (4 Bft) NO 1,00 h 0,458 mm 4,0 UV-I 789 W/m 10,4 C 12,5 C 29,7 km/h (5 Bft) 98,68 %
08.05.2016 12:00 18,6 C 62 % 1012,3 hPa 0,0 l/m 25,3 km/h (4 Bft) O-NO 1,00 h 0,533 mm 4,6 UV-I 842 W/m 11,1 C 13,5 C 34,3 km/h (5 Bft) 98,74 %
08.05.2016 13:00 19,5 C 56 % 1012,2 hPa 0,0 l/m 29,8 km/h (5 Bft) O-NO 1,00 h 0,584 mm 4,7 UV-I 846 W/m 10,5 C 14,1 C 39,6 km/h (6 Bft) 97,97 %
08.05.2016 14:00 20,2 C 53 % 1012,1 hPa 0,0 l/m 28,7 km/h (4 Bft) O-NO 1,00 h 0,661 mm 4,1 UV-I 802 W/m 10,3 C 15,2 C 38,1 km/h (5 Bft) 98,54 %
08.05.2016 15:00 20,5 C 51 % 1011,9 hPa 0,0 l/m 27,5 km/h (4 Bft) NO 1,00 h 0,635 mm 3,1 UV-I 707 W/m 9,9 C 15,8 C 37,7 km/h (5 Bft) 97,80 %
08.05.2016 16:00 20,3 C 48 % 1012,0 hPa 0,0 l/m 29,5 km/h (5 Bft) O-NO 1,00 h 0,584 mm 2,0 UV-I 577 W/m 8,9 C 15,2 C 38,9 km/h (6 Bft) 98,94 %
08.05.2016 17:00 19,9 C 47 % 1012,1 hPa 0,0 l/m 27,5 km/h (4 Bft) O-NO 1,00 h 0,533 mm 1,1 UV-I 417 W/m 8,4 C 15,0 C 37,3 km/h (5 Bft) 98,35 %
08.05.2016 18:00 19,2 C 48 % 1012,1 hPa 0,0 l/m 27,1 km/h (4 Bft) O-NO 1,00 h 0,432 mm 0,6 UV-I 242 W/m 7,9 C 14,0 C 37,0 km/h (5 Bft) 99,38 %
08.05.2016 19:00 18,2 C 49 % 1012,2 hPa 0,0 l/m 24,7 km/h (4 Bft) O-NO 0,38 h 0,330 mm 0,0 UV-I 74 W/m 7,3 C 13,0 C 33,2 km/h (5 Bft) 97,74 %
08.05.2016 20:00 16,6 C 54 % 1012,6 hPa 0,0 l/m 16,3 km/h (3 Bft) NO 0,05 h 0,203 mm 0,0 UV-I 11 W/m 7,4 C 12,8 C 22,5 km/h (4 Bft) 99,51 %
08.05.2016 21:00 15,2 C 60 % 1013,0 hPa 0,0 l/m 12,8 km/h (3 Bft) NO 0,00 h 0,102 mm 0,0 UV-I 0 W/m 7,4 C 12,2 C 17,9 km/h (3 Bft) 98,11 %
08.05.2016 22:00 13,8 C 65 % 1013,1 hPa 0,0 l/m 9,3 km/h (2 Bft) NO 0,00 h 0,076 mm 0,0 UV-I 0 W/m 7,4 C 12,2 C 13,8 km/h (3 Bft) 99,46 %
08.05.2016 23:00 13,1 C 69 % 1013,3 hPa 0,0 l/m 11,8 km/h (2 Bft) O-NO 0,00 h 0,051 mm 0,0 UV-I 0 W/m 7,5 C 10,2 C 16,4 km/h (3 Bft) 98,28 %
Min-Datum _ 05.05.16 07.05.16 07.05.16 - 02.05.16 - - - - - 08.05.16 04.05.16 02.05.16 06.05.16
_ Min-Zeit 02:52 15:00 18:26 - 00:00 - - - - - 02:52 07:17 00:00 00:02
Minimum _ 5,9 C 38 % 1010,2 hPa - 0,0 km/h (0 Bft) - - - - - 5,0 C -1,8 C 0,0 km/h (0 Bft) 16,67 %
Max-Datum _ 07.05.16 03.05.16 04.05.16 03.05.16 08.05.16 - 03.05.16 07.05.16 07.05.16 05.05.16 06.05.16 07.05.16 08.05.16 02.05.16
_ Max-Zeit 14:42 05:58 23:29 00:06 16:58 - 09:35 14:00 12:52 14:01 13:03 14:39 13:40 00:00
Maximum _ 21,7 C 98 % 1027,1 hPa 3,8 l/m 39,1 km/h
O-NO (6 Bft)
- 0,08 h 0,661 mm 5,1 UV-I 1014 W/m 12,0 C 19,2 C 51,5 km/h
O-NO (7 Bft)
100,00 %
Durchschnitt _ 12,1 C 77 % 1017,6 hPa #25,6 l/m 11,6 km/h (2 Bft) O-NO #54:22 h #26,950 mm 2,2 UV-I 331 W/m 7,8 C 9,6 C 16,1 km/h (3 Bft) 98,40 %